Hauptseite
METAR-TAF:

METAR-TAF

Flughäfen :

Anchorage, Alaska, Vereinigte Staaten

Ted Stevens Anchorage International Airport

Breite: 61-10-28N, Länge: 149-59-46W, Höhe: 44 m

Beobachtung

Neuester Wetterbericht von vor 58 Minuten, um 22:53 UTC
Wind 4 kt aus West
Temperatur -2°C
Luftfeuchtigkeit 43%
Luftdruck 1008 hPa
Sichtweite: 16.1 km
Himmel klar

METAR: PANC 242253Z 28004KT 10SM CLR M02/M13 A2976 RMK AO2 SLP081 T10171133 $

Zeit: 15:51 (23:51 UTC)

Prognose

Neuester Wetterbericht von vor 12 Minuten, um 23:39 UTC
Gültige Prognose vom 25 um 00 UTC bis 26 um 06 UTC
Wind 6 kt aus Nord
Sichtweite: 10 km
Himmel klar

TAF: PANC 242339Z 2500/2606 01006KT P6SM SKC

Wetterbeobachtungen und Prognosen von mehr als 4000 Flughäfen (METAR und TAF Bericht).

Die verfügbaren Stationen werden durch gelbe und rote Markierungen auf der Karte dargestellt.

Führen Sie die Maus auf sie, um den Namen der Station zu sehen.

Darauf klicken, um die Beobachtung von Wetterbeobachtungen und Prognosen zu sehen.

Um die Karte zu ändern : klicken Sie auf den grünen Tasten mit einem schwarzen Kreuz Zum Vergrößern, auf den grünen Button mit einem Gedankenstrich zu verkleinern, oder auf die grünen Pfeile für benachbarte Karten.


METAR-TAF: